Grande Brasile — ZDJO4 — position and weather

sailwx.info

Track history (hours):
 
Tides and Currents Weather Stations Pressure Air Temp Water Temp Dewpoint Dewpoint Depression Visibility Wind Speed Wind Dir Waves Ship Positions

Grande Brasile

Last reported at 2017-Nov-09 23:18 UTC. Time now 2017-Nov-20 11:58 UTC.
Position S 24°02' W 045°57'.
Warning: this ship's position is 10 days out of date.

Length 214 m; draft 8.7 m.

Type: Cargo ship. MMSI: 236543000.

Date/timePositionNaut miles runAvg speedWind from/ knotsBaromVisibWave heightAir tempDewpointWater temp
2017-Nov-09 23:18S 24°02' W 045°57'515.7
2017-Nov-09 23:00S 24°02' W 046°03'815.6
2017-Nov-09 22:30S 24°03' W 046°11'714.9
2017-Nov-09 22:01S 24°03' W 046°19'3 6.6
2017-Nov-09 21:30S 23°60' W 046°18'3 0.2
2017-Nov-09 01:26S 23°56' W 046°19'3 8.0
2017-Nov-09 01:00S 23°59' W 046°18'4 7.2
2017-Nov-09 00:30S 24°02' W 046°21'4 8.5
2017-Nov-09 00:00S 24°06' W 046°23'1 1.0
2017-Nov-08 23:29S 24°06' W 046°22'0 0.1
2017-Nov-08 22:59S 24°06' W 046°22'0 0.0
2017-Nov-08 22:29S 24°06' W 046°22'0 0.0
2017-Nov-08 22:00S 24°06' W 046°22'0 0.0
2017-Nov-08 21:30S 24°06' W 046°22'2 3.7
2017-Nov-08 21:00S 24°07' W 046°23'611.4
2017-Nov-08 20:30S 24°13' W 046°26'611.2
2017-Nov-08 20:00S 24°18' W 046°29'611.1
2017-Nov-08 19:30S 24°21' W 046°33'611.0
2017-Nov-08 19:00S 24°24' W 046°38'510.9
2017-Nov-08 18:30S 24°28' W 046°43'612.2
2017-Nov-08 18:00S 24°32' W 046°48'  
Track history (hours):
 
Tides and Currents Weather Stations Pressure Air Temp Water Temp Dewpoint Dewpoint Depression Visibility Wind Speed Wind Dir Waves Ship Positions

Grande Brasile

Last reported at 2017-Nov-09 23:18 UTC. Time now 2017-Nov-20 11:58 UTC.
Position S 24°02' W 045°57'.
Warning: this ship's position is 10 days out of date.

Length 214 m; draft 8.7 m.

Type: Cargo ship. MMSI: 236543000.

Date/timePositionNaut miles runAvg speedWind from/ knotsBaromVisibWave heightAir tempDewpointWater temp
2017-Nov-09 23:18S 24°02' W 045°57'515.7
2017-Nov-09 23:00S 24°02' W 046°03'815.6
2017-Nov-09 22:30S 24°03' W 046°11'714.9
2017-Nov-09 22:01S 24°03' W 046°19'3 6.6
2017-Nov-09 21:30S 23°60' W 046°18'3 0.2
2017-Nov-09 01:26S 23°56' W 046°19'3 8.0
2017-Nov-09 01:00S 23°59' W 046°18'4 7.2
2017-Nov-09 00:30S 24°02' W 046°21'4 8.5
2017-Nov-09 00:00S 24°06' W 046°23'1 1.0
2017-Nov-08 23:29S 24°06' W 046°22'0 0.1
2017-Nov-08 22:59S 24°06' W 046°22'0 0.0
2017-Nov-08 22:29S 24°06' W 046°22'0 0.0
2017-Nov-08 22:00S 24°06' W 046°22'0 0.0
2017-Nov-08 21:30S 24°06' W 046°22'2 3.7
2017-Nov-08 21:00S 24°07' W 046°23'611.4
2017-Nov-08 20:30S 24°13' W 046°26'611.2
2017-Nov-08 20:00S 24°18' W 046°29'611.1
2017-Nov-08 19:30S 24°21' W 046°33'611.0
2017-Nov-08 19:00S 24°24' W 046°38'510.9
2017-Nov-08 18:30S 24°28' W 046°43'612.2
2017-Nov-08 18:00S 24°32' W 046°48'  

Dump ship's entire track history